createdAt,value
2018-03-24T00:00:24.165Z,38.15
2018-03-24T00:02:51.573Z,37.25
2018-03-24T00:05:18.996Z,38.15
2018-03-24T00:07:46.396Z,37.60
2018-03-24T00:10:13.805Z,35.78
2018-03-24T00:12:41.226Z,37.30
2018-03-24T00:15:08.636Z,35.58
2018-03-24T00:17:36.040Z,37.35
2018-03-24T00:20:03.458Z,37.13
2018-03-24T00:22:30.856Z,37.50
2018-03-24T00:24:58.264Z,37.15
2018-03-24T00:27:26.039Z,38.03
2018-03-24T00:29:53.428Z,40.90
2018-03-24T00:32:20.836Z,37.83
2018-03-24T00:34:48.253Z,38.53
2018-03-24T00:37:15.651Z,38.83
2018-03-24T00:39:43.064Z,36.70
2018-03-24T00:42:10.485Z,37.65
2018-03-24T00:44:37.888Z,39.80
2018-03-24T00:47:05.299Z,38.92
2018-03-24T00:49:32.716Z,42.28
2018-03-24T00:52:00.116Z,39.58
2018-03-24T00:54:27.511Z,40.42
2018-03-24T00:56:54.932Z,40.30
2018-03-24T00:59:22.338Z,39.22
2018-03-24T01:01:49.741Z,41.65
2018-03-24T01:04:17.164Z,43.70
2018-03-24T01:06:44.572Z,42.50
2018-03-24T01:09:11.985Z,41.92
2018-03-24T01:11:39.410Z,43.08
2018-03-24T01:14:06.812Z,42.40
2018-03-24T01:16:34.221Z,41.75
2018-03-24T01:19:01.648Z,43.35
2018-03-24T01:21:29.051Z,44.60
2018-03-24T01:23:56.461Z,45.80
2018-03-24T01:26:23.882Z,46.13
2018-03-24T01:28:51.288Z,43.10
2018-03-24T01:31:18.700Z,42.70
2018-03-24T01:33:46.128Z,43.50
2018-03-24T01:36:13.535Z,43.53
2018-03-24T01:38:40.944Z,45.83
2018-03-24T01:41:08.372Z,44.95
2018-03-24T01:43:35.787Z,44.90
2018-03-24T01:46:03.194Z,43.83
2018-03-24T01:48:30.620Z,45.25
2018-03-24T01:50:58.023Z,46.53
2018-03-24T01:53:32.075Z,46.95
2018-03-24T01:55:59.488Z,48.22
2018-03-24T01:58:26.894Z,49.35
2018-03-24T02:00:54.316Z,51.05
2018-03-24T02:03:21.724Z,52.58
2018-03-24T02:05:49.128Z,52.28
2018-03-24T02:08:16.548Z,52.08
2018-03-24T02:10:43.964Z,49.53
2018-03-24T02:13:11.384Z,51.80
2018-03-24T02:15:38.794Z,55.90
2018-03-24T02:18:06.198Z,60.03
2018-03-24T02:20:33.625Z,54.30
2018-03-24T02:23:01.032Z,54.42
2018-03-24T02:25:28.460Z,56.35
2018-03-24T02:27:55.867Z,51.75
2018-03-24T02:30:23.277Z,52.90
2018-03-24T02:32:50.701Z,49.15
2018-03-24T02:35:18.108Z,48.25
2018-03-24T02:37:45.524Z,50.42
2018-03-24T02:40:12.925Z,49.85
2018-03-24T02:42:40.342Z,49.67
2018-03-24T02:45:07.752Z,45.90
2018-03-24T02:47:35.356Z,48.47
2018-03-24T02:50:02.774Z,46.28
2018-03-24T02:52:30.176Z,52.00
2018-03-24T02:54:57.586Z,49.45
2018-03-24T02:57:25.014Z,50.08
2018-03-24T02:59:52.416Z,49.60
2018-03-24T03:02:19.840Z,47.70
2018-03-24T03:04:47.253Z,48.87
2018-03-24T03:07:14.667Z,47.70
2018-03-24T03:09:42.091Z,46.47
2018-03-24T03:12:09.493Z,47.65
2018-03-24T03:14:36.929Z,45.80
2018-03-24T03:17:04.400Z,48.90
2018-03-24T03:19:31.792Z,51.63
2018-03-24T03:21:59.208Z,49.42
2018-03-24T03:24:26.616Z,47.90
2018-03-24T03:26:54.042Z,49.03
2018-03-24T03:29:21.440Z,53.40
2018-03-24T03:31:49.310Z,52.62
2018-03-24T03:34:16.732Z,49.95
2018-03-24T03:36:44.136Z,53.05
2018-03-24T03:39:11.560Z,56.72
2018-03-24T03:41:38.963Z,50.30
2018-03-24T03:44:06.370Z,53.30
2018-03-24T03:46:33.789Z,55.78
2018-03-24T03:49:01.188Z,54.15
2018-03-24T03:51:28.612Z,57.22
2018-03-24T03:53:56.013Z,52.62
2018-03-24T03:56:23.420Z,53.08
2018-03-24T03:58:50.837Z,51.50
2018-03-24T04:01:18.245Z,51.35
2018-03-24T04:03:45.659Z,51.90
2018-03-24T04:06:13.068Z,47.78
2018-03-24T04:08:40.470Z,49.38
2018-03-24T04:11:07.884Z,51.33
2018-03-24T04:13:35.284Z,50.80
2018-03-24T04:16:02.744Z,50.35
2018-03-24T04:18:30.136Z,51.33
2018-03-24T04:20:57.548Z,45.92
2018-03-24T04:23:24.952Z,49.92
2018-03-24T04:25:52.361Z,48.15
2018-03-24T04:28:19.771Z,51.15
2018-03-24T04:30:47.180Z,50.70
2018-03-24T04:33:14.576Z,47.28
2018-03-24T04:35:41.991Z,50.30
2018-03-24T04:38:09.397Z,51.13
2018-03-24T04:40:36.832Z,50.50
2018-03-24T04:43:04.232Z,50.15
2018-03-24T04:45:31.643Z,52.90
2018-03-24T04:47:59.058Z,47.80
2018-03-24T04:50:26.466Z,49.85
2018-03-24T04:52:53.880Z,49.42
2018-03-24T04:55:21.283Z,52.28
2018-03-24T04:57:48.683Z,48.17
2018-03-24T05:00:16.112Z,50.33
2018-03-24T05:02:43.515Z,51.28
2018-03-24T05:05:10.936Z,51.28
2018-03-24T05:07:38.337Z,47.78
2018-03-24T05:10:05.740Z,50.00
2018-03-24T05:12:33.155Z,46.37
2018-03-24T05:15:00.556Z,49.90
2018-03-24T05:17:27.972Z,52.58
2018-03-24T05:19:55.380Z,52.42
2018-03-24T05:22:22.777Z,52.78
2018-03-24T05:24:50.231Z,47.80
2018-03-24T05:27:17.590Z,51.50
2018-03-24T05:29:45.003Z,52.67
2018-03-24T05:32:12.433Z,46.03
2018-03-24T05:34:39.832Z,53.22
2018-03-24T05:37:07.248Z,49.80
2018-03-24T05:39:34.643Z,50.33
2018-03-24T05:42:02.060Z,55.20
2018-03-24T05:44:29.463Z,51.72
2018-03-24T05:46:56.855Z,50.92
2018-03-24T05:49:24.264Z,48.80
2018-03-24T05:51:52.484Z,51.60
2018-03-24T05:54:19.905Z,51.45
2018-03-24T05:56:47.304Z,53.28
2018-03-24T05:59:14.703Z,50.30
2018-03-24T06:01:42.192Z,50.30
2018-03-24T06:04:09.575Z,49.40
2018-03-24T06:06:36.993Z,47.90
2018-03-24T06:09:04.392Z,51.47
2018-03-24T06:11:31.797Z,49.30
2018-03-24T06:13:59.203Z,49.85
2018-03-24T06:16:26.605Z,48.15
2018-03-24T06:18:54.024Z,49.70
2018-03-24T06:21:21.420Z,46.97
2018-03-24T06:23:48.815Z,46.20
2018-03-24T06:26:16.230Z,46.60
2018-03-24T06:28:43.630Z,48.83
2018-03-24T06:31:11.050Z,48.15
2018-03-24T06:33:38.449Z,49.20
2018-03-24T06:36:08.358Z,48.15
2018-03-24T06:38:35.774Z,48.15
2018-03-24T06:41:03.169Z,48.17
2018-03-24T06:43:30.584Z,49.85
2018-03-24T06:45:57.985Z,46.95
2018-03-24T06:48:25.386Z,46.65
2018-03-24T06:50:52.796Z,47.75
2018-03-24T06:53:20.200Z,46.55
2018-03-24T06:55:47.616Z,50.78
2018-03-24T06:58:15.021Z,49.50
2018-03-24T07:00:42.417Z,46.58
2018-03-24T07:03:09.825Z,46.63
2018-03-24T07:05:37.224Z,50.90
2018-03-24T07:08:04.645Z,46.97
2018-03-24T07:10:32.053Z,48.38
2018-03-24T07:12:59.456Z,46.47
2018-03-24T07:20:10.592Z,48.50
2018-03-24T07:22:37.997Z,48.20
2018-03-24T07:25:05.396Z,50.15
2018-03-24T07:27:32.811Z,48.15
2018-03-24T07:30:00.217Z,49.05
2018-03-24T07:32:27.636Z,47.90
2018-03-24T07:34:55.040Z,48.67
2018-03-24T07:37:22.447Z,48.22
2018-03-24T07:39:49.869Z,48.95
2018-03-24T07:42:17.282Z,48.30
2018-03-24T07:44:44.691Z,48.72
2018-03-24T07:47:12.096Z,47.08
2018-03-24T07:49:39.503Z,46.40
2018-03-24T07:52:06.918Z,49.13
2018-03-24T07:54:34.320Z,46.10
2018-03-24T07:57:01.786Z,44.88
2018-03-24T07:59:29.153Z,46.40
2018-03-24T08:01:56.555Z,46.47
2018-03-24T08:04:23.967Z,45.72
2018-03-24T08:06:51.379Z,45.55
2018-03-24T08:09:18.799Z,47.90
2018-03-24T08:11:46.208Z,48.08
2018-03-24T08:14:13.620Z,45.50
2018-03-24T08:16:41.048Z,43.80
2018-03-24T08:19:08.461Z,44.65
2018-03-24T08:21:35.880Z,43.83
2018-03-24T08:24:03.287Z,42.62
2018-03-24T08:26:30.696Z,43.00
2018-03-24T08:28:58.113Z,44.05
2018-03-24T08:31:25.523Z,43.75
2018-03-24T08:33:53.277Z,44.80
2018-03-24T08:36:20.685Z,40.03
2018-03-24T08:38:48.091Z,42.33
2018-03-24T08:41:15.521Z,37.67
2018-03-24T08:43:42.927Z,37.83
2018-03-24T08:46:10.499Z,33.75
2018-03-24T08:48:37.904Z,32.55
2018-03-24T08:51:05.307Z,30.98
2018-03-24T08:53:32.712Z,30.57
2018-03-24T08:56:00.119Z,30.35
2018-03-24T08:58:27.528Z,29.97
2018-03-24T09:00:54.928Z,28.67
2018-03-24T09:03:22.321Z,29.37
2018-03-24T09:05:49.724Z,29.33
2018-03-24T09:08:17.132Z,28.38
2018-03-24T09:10:44.540Z,26.43
2018-03-24T09:13:11.944Z,26.45
2018-03-24T09:15:39.347Z,25.50
2018-03-24T09:18:06.745Z,28.13
2018-03-24T09:20:34.140Z,23.00
2018-03-24T09:23:01.581Z,25.00
2018-03-24T09:25:28.989Z,24.60
2018-03-24T09:27:56.397Z,24.93
2018-03-24T09:30:23.788Z,25.97
2018-03-24T09:32:51.186Z,22.90
2018-03-24T09:35:18.593Z,24.27
2018-03-24T09:37:45.981Z,24.10
2018-03-24T09:40:13.376Z,22.07
2018-03-24T09:42:40.780Z,20.60
2018-03-24T09:45:08.176Z,19.73
2018-03-24T09:47:35.588Z,17.13
2018-03-24T09:50:02.985Z,16.00
2018-03-24T09:52:30.371Z,16.23
2018-03-24T09:54:57.796Z,18.20
2018-03-24T09:57:25.183Z,16.80
2018-03-24T09:59:52.597Z,15.40
2018-03-24T10:02:19.997Z,15.73
2018-03-24T10:04:47.388Z,15.07
2018-03-24T10:07:14.796Z,15.47
2018-03-24T10:09:42.195Z,13.57
2018-03-24T10:12:09.644Z,13.87
2018-03-24T10:14:37.023Z,14.53
2018-03-24T10:17:04.420Z,15.00
2018-03-24T10:19:31.826Z,14.73
2018-03-24T10:22:02.704Z,15.30
2018-03-24T10:24:30.134Z,15.73
2018-03-24T10:26:57.519Z,16.33
2018-03-24T10:29:24.928Z,16.20
2018-03-24T10:31:52.320Z,16.60
2018-03-24T10:34:19.707Z,15.73
2018-03-24T10:36:47.116Z,17.93
2018-03-24T10:39:14.509Z,17.07
2018-03-24T10:41:41.900Z,19.40
2018-03-24T10:44:09.309Z,16.63
2018-03-24T10:46:36.700Z,17.70
2018-03-24T10:49:04.108Z,18.97
2018-03-24T10:51:31.519Z,17.57
2018-03-24T10:53:58.921Z,17.50
2018-03-24T10:56:26.333Z,17.60
2018-03-24T10:58:53.752Z,17.63
2018-03-24T11:01:25.501Z,17.40
2018-03-24T11:03:52.925Z,16.97
2018-03-24T11:06:20.315Z,17.20
2018-03-24T11:08:47.711Z,16.47
2018-03-24T11:11:15.164Z,16.17
2018-03-24T11:13:42.516Z,17.93
2018-03-24T11:16:09.918Z,15.87
2018-03-24T11:18:37.328Z,15.30
2018-03-24T11:21:04.724Z,17.03
2018-03-24T11:23:32.119Z,16.43
2018-03-24T11:25:59.533Z,15.47
2018-03-24T11:28:26.937Z,17.03
2018-03-24T11:30:54.331Z,16.20
2018-03-24T11:33:21.764Z,16.40
2018-03-24T11:35:49.160Z,15.90
2018-03-24T11:38:16.570Z,15.07
2018-03-24T11:40:43.972Z,16.30
2018-03-24T11:43:11.369Z,17.50
2018-03-24T11:45:38.809Z,15.50
2018-03-24T11:48:06.192Z,16.50
2018-03-24T11:50:33.595Z,14.83
2018-03-24T11:53:00.992Z,16.13
2018-03-24T11:55:28.391Z,17.87
2018-03-24T11:57:55.796Z,16.53
2018-03-24T12:00:23.199Z,15.87
2018-03-24T12:02:50.612Z,16.30
2018-03-24T12:05:18.016Z,16.53
2018-03-24T12:07:45.416Z,15.87
2018-03-24T12:10:12.828Z,16.40
2018-03-24T12:12:40.224Z,16.17
2018-03-24T12:15:07.641Z,16.80
2018-03-24T12:17:35.036Z,15.93
2018-03-24T12:20:02.440Z,16.73
2018-03-24T12:22:29.857Z,16.77
2018-03-24T12:24:57.294Z,17.70
2018-03-24T12:27:24.700Z,16.20
2018-03-24T12:29:52.100Z,16.30
2018-03-24T12:32:19.496Z,16.90
2018-03-24T12:34:46.908Z,17.63
2018-03-24T12:37:14.308Z,16.23
2018-03-24T12:39:41.720Z,17.20
2018-03-24T12:42:09.118Z,15.70
2018-03-24T12:44:36.520Z,17.07
2018-03-24T12:47:03.928Z,16.33
2018-03-24T12:49:31.329Z,15.37
2018-03-24T12:51:58.732Z,16.60
2018-03-24T12:54:26.134Z,16.83
2018-03-24T12:56:53.535Z,15.60
2018-03-24T12:59:20.949Z,15.63
2018-03-24T13:01:48.348Z,16.20
2018-03-24T13:04:15.761Z,17.10
2018-03-24T13:06:43.160Z,16.50
2018-03-24T13:09:10.559Z,16.00
2018-03-24T13:11:37.965Z,15.07
2018-03-24T13:14:05.433Z,17.03
2018-03-24T13:16:32.848Z,16.50
2018-03-24T13:19:00.257Z,15.73
2018-03-24T13:21:27.651Z,15.90
2018-03-24T13:23:55.060Z,17.07
2018-03-24T13:26:22.460Z,15.67
2018-03-24T13:28:49.871Z,14.90
2018-03-24T13:31:17.264Z,16.03
2018-03-24T13:33:44.667Z,15.83
2018-03-24T13:36:12.077Z,15.73
2018-03-24T13:38:39.512Z,15.20
2018-03-24T13:41:06.900Z,16.00
2018-03-24T13:43:34.295Z,15.77
2018-03-24T13:46:01.706Z,16.57
2018-03-24T13:48:29.100Z,15.83
2018-03-24T13:50:56.496Z,15.43
2018-03-24T13:53:23.908Z,16.60
2018-03-24T13:55:51.312Z,15.73
2018-03-24T13:58:18.708Z,18.57
2018-03-24T14:00:46.123Z,16.33
2018-03-24T14:03:13.528Z,16.73
2018-03-24T14:05:40.992Z,16.70
2018-03-24T14:08:08.392Z,15.00
2018-03-24T14:10:35.787Z,16.50
2018-03-24T14:13:03.200Z,15.03
2018-03-24T14:15:30.600Z,15.23
2018-03-24T14:17:58.013Z,14.57
2018-03-24T14:20:25.424Z,14.83
2018-03-24T14:22:52.819Z,16.80
2018-03-24T14:25:20.228Z,16.03
2018-03-24T14:27:47.623Z,15.10
2018-03-24T14:30:15.032Z,16.93
2018-03-24T14:32:42.438Z,17.13
2018-03-24T14:35:09.833Z,18.07
2018-03-24T14:37:37.250Z,16.50
2018-03-24T14:40:04.640Z,16.17
2018-03-24T14:42:32.059Z,15.87
2018-03-24T14:44:59.455Z,15.80
2018-03-24T14:47:26.860Z,17.77
2018-03-24T14:49:54.269Z,17.50
2018-03-24T14:52:21.659Z,19.17
2018-03-24T14:54:49.083Z,18.20
2018-03-24T14:57:16.484Z,18.67
2018-03-24T14:59:43.880Z,18.20
2018-03-24T15:02:11.300Z,17.10
2018-03-24T15:04:38.700Z,19.00
2018-03-24T15:07:06.116Z,18.53
2018-03-24T15:09:33.514Z,18.70
2018-03-24T15:12:00.912Z,19.37
2018-03-24T15:14:28.328Z,18.93
2018-03-24T15:16:55.724Z,17.77
2018-03-24T15:19:23.140Z,18.10
2018-03-24T15:21:50.536Z,18.57
2018-03-24T15:24:17.927Z,18.43
2018-03-24T15:26:45.340Z,19.60
2018-03-24T15:29:24.355Z,19.80
2018-03-24T15:32:03.752Z,20.00
2018-03-24T15:34:42.794Z,21.57
2018-03-24T15:37:10.196Z,22.90
2018-03-24T15:39:37.600Z,22.30
2018-03-24T15:42:05.028Z,22.10
2018-03-24T15:44:32.428Z,21.93
2018-03-24T15:47:00.826Z,22.77
2018-03-24T15:49:28.228Z,22.57
2018-03-24T15:51:55.624Z,22.17
2018-03-24T15:54:23.038Z,21.27
2018-03-24T15:56:50.436Z,24.03
2018-03-24T15:59:17.832Z,20.90
2018-03-24T16:01:45.235Z,22.53
2018-03-24T16:04:12.636Z,22.47
2018-03-24T16:06:40.052Z,21.73
2018-03-24T16:09:07.443Z,22.40
2018-03-24T16:11:34.844Z,20.47
2018-03-24T16:14:02.256Z,21.27
2018-03-24T16:16:29.648Z,21.90
2018-03-24T16:18:57.059Z,19.67
2018-03-24T16:21:24.485Z,20.97
2018-03-24T16:23:51.860Z,21.43
2018-03-24T16:26:19.308Z,20.90
2018-03-24T16:28:46.693Z,22.10
2018-03-24T16:31:14.113Z,21.80
2018-03-24T16:33:41.520Z,20.50
2018-03-24T16:36:08.939Z,20.13
2018-03-24T16:38:36.344Z,20.23
2018-03-24T16:41:03.745Z,21.40
2018-03-24T16:43:31.155Z,20.40
2018-03-24T16:45:59.454Z,19.93
2018-03-24T16:48:26.851Z,22.10
2018-03-24T16:50:54.261Z,19.23
2018-03-24T16:53:21.661Z,21.17
2018-03-24T16:55:49.266Z,19.40
2018-03-24T16:58:16.687Z,18.97
2018-03-24T17:00:44.087Z,21.37
2018-03-24T17:03:11.496Z,21.27
2018-03-24T17:05:38.902Z,21.63
2018-03-24T17:08:06.328Z,20.27
2018-03-24T17:10:33.720Z,21.10
2018-03-24T17:13:01.116Z,19.17
2018-03-24T17:15:28.520Z,22.83
2018-03-24T17:17:55.919Z,20.47
2018-03-24T17:20:23.333Z,20.60
2018-03-24T17:22:50.732Z,20.30
2018-03-24T17:25:18.129Z,20.47
2018-03-24T17:27:45.532Z,19.90
2018-03-24T17:30:12.924Z,19.87
2018-03-24T17:32:40.332Z,20.20
2018-03-24T17:35:07.737Z,21.57
2018-03-24T17:37:35.133Z,20.30
2018-03-24T17:40:02.543Z,22.43
2018-03-24T17:42:29.943Z,20.10
2018-03-24T17:44:57.356Z,20.33
2018-03-24T17:47:24.760Z,20.73
2018-03-24T17:49:52.192Z,20.37
2018-03-24T17:52:19.599Z,20.33
2018-03-24T17:54:46.992Z,20.60
2018-03-24T17:57:14.396Z,20.87
2018-03-24T17:59:41.792Z,22.83
2018-03-24T18:02:09.188Z,20.90
2018-03-24T18:04:36.597Z,22.03
2018-03-24T18:07:03.992Z,21.57
2018-03-24T18:09:31.400Z,23.60
2018-03-24T18:11:58.792Z,23.00
2018-03-24T18:14:26.187Z,24.27
2018-03-24T18:16:53.587Z,25.70
2018-03-24T18:19:20.984Z,23.77
2018-03-24T18:21:48.396Z,25.20
2018-03-24T18:24:15.796Z,25.60
2018-03-24T18:26:43.188Z,26.37
2018-03-24T18:29:10.588Z,25.60
2018-03-24T18:31:37.993Z,25.13
2018-03-24T18:34:05.400Z,25.63
2018-03-24T18:36:32.796Z,24.93
2018-03-24T18:39:00.188Z,25.67
2018-03-24T18:41:27.604Z,24.60
2018-03-24T18:43:55.004Z,24.83
2018-03-24T18:46:22.407Z,26.10
2018-03-24T18:48:49.803Z,25.93
2018-03-24T18:51:17.201Z,26.30
2018-03-24T18:53:44.649Z,28.10
2018-03-24T18:56:12.004Z,27.70
2018-03-24T18:58:39.419Z,26.60
2018-03-24T19:01:06.823Z,28.50
2018-03-24T19:03:34.227Z,28.08
2018-03-24T19:06:01.632Z,28.63
2018-03-24T19:08:29.016Z,28.50
2018-03-24T19:10:56.428Z,26.53
2018-03-24T19:13:23.828Z,28.10
2018-03-24T19:15:51.228Z,29.60
2018-03-24T19:18:18.633Z,29.60
2018-03-24T19:20:46.040Z,30.27
2018-03-24T19:23:13.467Z,30.35
2018-03-24T19:25:40.847Z,29.13
2018-03-24T19:28:08.247Z,30.00
2018-03-24T19:30:35.648Z,31.10
2018-03-24T19:33:03.049Z,30.37
2018-03-24T19:35:30.461Z,31.13
2018-03-24T19:37:57.871Z,30.35
2018-03-24T19:40:25.260Z,31.37
2018-03-24T19:42:52.680Z,29.40
2018-03-24T19:45:20.076Z,31.40
2018-03-24T19:47:47.480Z,31.40
2018-03-24T19:50:14.879Z,32.23
2018-03-24T19:52:42.268Z,33.03
2018-03-24T19:55:09.681Z,31.70
2018-03-24T19:57:37.083Z,30.80
2018-03-24T20:00:04.504Z,30.20
2018-03-24T20:02:31.909Z,31.12
2018-03-24T20:04:59.306Z,31.67
2018-03-24T20:07:26.724Z,30.50
2018-03-24T20:09:54.125Z,34.35
2018-03-24T20:12:21.540Z,30.95
2018-03-24T20:14:48.940Z,30.37
2018-03-24T20:17:16.348Z,29.85
2018-03-24T20:19:43.770Z,29.85
2018-03-24T20:22:11.172Z,31.08
2018-03-24T20:24:38.591Z,32.38
2018-03-24T20:27:05.992Z,30.77
2018-03-24T20:29:33.380Z,31.30
2018-03-24T20:32:00.796Z,30.98
2018-03-24T20:34:28.192Z,30.60
2018-03-24T20:36:55.623Z,32.17
2018-03-24T20:39:23.016Z,30.12
2018-03-24T20:41:50.429Z,30.92
2018-03-24T20:44:17.835Z,30.45
2018-03-24T20:46:45.244Z,32.55
2018-03-24T20:49:12.672Z,30.27
2018-03-24T20:51:40.080Z,30.30
2018-03-24T20:54:07.584Z,31.70
2018-03-24T20:56:34.988Z,30.77
2018-03-24T20:59:02.392Z,32.67
2018-03-24T21:01:29.827Z,31.92
2018-03-24T21:03:57.216Z,30.57
2018-03-24T21:06:24.616Z,31.62
2018-03-24T21:08:52.031Z,29.98
2018-03-24T21:11:19.428Z,30.25
2018-03-24T21:13:46.848Z,31.52
2018-03-24T21:16:14.254Z,33.97
2018-03-24T21:18:41.651Z,33.70
2018-03-24T21:21:09.072Z,32.97
2018-03-24T21:23:36.475Z,32.97
2018-03-24T21:26:03.896Z,33.00
2018-03-24T21:28:31.296Z,33.75
2018-03-24T21:30:58.709Z,30.73
2018-03-24T21:33:26.128Z,34.45
2018-03-24T21:35:53.532Z,35.47
2018-03-24T21:38:20.947Z,34.15
2018-03-24T21:40:48.352Z,32.63
2018-03-24T21:43:15.771Z,36.40
2018-03-24T21:45:44.389Z,33.60
2018-03-24T21:48:13.092Z,35.97
2018-03-24T21:50:40.541Z,33.70
2018-03-24T21:53:07.929Z,34.20
2018-03-24T21:55:35.328Z,33.45
2018-03-24T21:58:02.764Z,35.80
2018-03-24T22:00:30.171Z,32.80
2018-03-24T22:02:57.583Z,33.58
2018-03-24T22:05:24.984Z,34.03
2018-03-24T22:07:52.516Z,37.50
2018-03-24T22:10:19.951Z,34.80
2018-03-24T22:12:47.404Z,35.80
2018-03-24T22:15:14.820Z,36.05
2018-03-24T22:17:42.228Z,34.22
2018-03-24T22:20:09.625Z,34.85
2018-03-24T22:22:37.039Z,34.53
2018-03-24T22:25:04.446Z,35.45
2018-03-24T22:27:31.859Z,34.92
2018-03-24T22:29:59.256Z,34.55
2018-03-24T22:32:26.660Z,36.03
2018-03-24T22:34:54.076Z,39.20
2018-03-24T22:37:21.480Z,46.67
2018-03-24T22:39:48.959Z,40.22
2018-03-24T22:42:16.308Z,38.90
2018-03-24T22:44:43.715Z,38.45
2018-03-24T22:47:11.146Z,37.28
2018-03-24T22:49:38.544Z,38.25
2018-03-24T22:52:05.955Z,38.22
2018-03-24T22:54:33.361Z,38.72
2018-03-24T22:57:00.763Z,36.13
2018-03-24T22:59:28.176Z,37.13
2018-03-24T23:01:55.571Z,37.38
2018-03-24T23:04:23.008Z,38.83
2018-03-24T23:06:50.412Z,40.65
2018-03-24T23:09:17.832Z,39.88
2018-03-24T23:11:45.244Z,39.05
2018-03-24T23:14:12.644Z,38.17
2018-03-24T23:16:40.063Z,39.10
2018-03-24T23:19:07.469Z,42.53
2018-03-24T23:21:34.880Z,41.40
2018-03-24T23:24:02.297Z,41.58
2018-03-24T23:26:29.709Z,44.38
2018-03-24T23:28:57.184Z,40.75
2018-03-24T23:31:24.523Z,41.63
2018-03-24T23:33:51.940Z,39.17
2018-03-24T23:36:19.675Z,39.25
2018-03-24T23:38:47.080Z,41.35
2018-03-24T23:41:14.496Z,40.00
2018-03-24T23:43:41.898Z,41.15
2018-03-24T23:46:09.295Z,38.22
2018-03-24T23:48:36.718Z,40.90
2018-03-24T23:51:04.107Z,41.65
2018-03-24T23:53:31.520Z,42.00
2018-03-24T23:55:58.911Z,39.03
2018-03-24T23:58:26.319Z,39.40
